createdAt,value
2022-08-07T00:02:40.797Z,66.80
2022-08-07T00:05:06.037Z,67.10
2022-08-07T00:07:40.428Z,67.30
2022-08-07T00:10:26.868Z,67.30
2022-08-07T00:13:02.423Z,67.20
2022-08-07T00:15:37.925Z,67.40
2022-08-07T00:18:19.824Z,67.70
2022-08-07T00:20:54.228Z,67.90
2022-08-07T00:23:25.273Z,68.00
2022-08-07T00:26:00.060Z,67.80
2022-08-07T00:28:33.988Z,67.70
2022-08-07T00:31:12.428Z,67.90
2022-08-07T00:33:42.702Z,68.00
2022-08-07T00:36:17.091Z,68.30
2022-08-07T00:38:47.666Z,68.40
2022-08-07T00:41:28.014Z,68.40
2022-08-07T00:44:01.467Z,68.70
2022-08-07T00:46:34.210Z,68.70
2022-08-07T00:49:03.802Z,68.70
2022-08-07T00:51:57.020Z,69.00
2022-08-07T00:54:24.288Z,69.40
2022-08-07T00:56:54.004Z,69.50
2022-08-07T00:59:35.175Z,69.50
2022-08-07T01:02:09.101Z,69.60
2022-08-07T01:04:49.793Z,69.70
2022-08-07T01:07:22.317Z,69.70
2022-08-07T01:10:04.798Z,69.60
2022-08-07T01:12:38.578Z,69.60
2022-08-07T01:15:11.810Z,70.30
2022-08-07T01:17:46.632Z,70.30
2022-08-07T01:20:17.446Z,70.10
2022-08-07T01:23:00.407Z,70.10
2022-08-07T01:25:55.544Z,70.20
2022-08-07T01:28:26.462Z,70.40
2022-08-07T01:31:00.253Z,70.70
2022-08-07T01:33:56.021Z,70.60
2022-08-07T01:36:34.022Z,70.60
2022-08-07T01:39:13.282Z,70.60
2022-08-07T01:42:01.464Z,70.80
2022-08-07T01:44:39.007Z,70.80
2022-08-07T01:48:16.652Z,70.80
2022-08-07T01:49:59.281Z,71.40
2022-08-07T01:52:34.497Z,70.80
2022-08-07T01:55:06.546Z,71.10
2022-08-07T01:58:06.174Z,71.30
2022-08-07T02:00:33.812Z,71.30
2022-08-07T02:03:21.490Z,71.50
2022-08-07T02:05:59.879Z,71.70
2022-08-07T02:08:41.742Z,71.70
2022-08-07T02:11:57.658Z,71.70
2022-08-07T02:14:07.450Z,71.80
2022-08-07T02:16:39.720Z,71.80
2022-08-07T02:20:07.616Z,72.10
2022-08-07T02:22:03.107Z,72.30
2022-08-07T02:24:37.358Z,72.50
2022-08-07T02:27:09.294Z,72.60
2022-08-07T02:29:54.302Z,72.80
2022-08-07T02:32:30.275Z,73.00
2022-08-07T02:35:01.181Z,73.10
2022-08-07T02:37:35.955Z,73.10
2022-08-07T02:40:29.829Z,73.30
2022-08-07T02:43:08.057Z,73.50
2022-08-07T02:45:58.046Z,73.70
2022-08-07T02:48:29.751Z,73.90
2022-08-07T02:51:28.793Z,74.10
2022-08-07T02:54:05.984Z,74.20
2022-08-07T02:56:36.488Z,74.30
2022-08-07T02:59:11.823Z,74.60
2022-08-07T03:01:47.199Z,74.30
2022-08-07T03:04:24.327Z,74.60
2022-08-07T03:06:54.690Z,75.00
2022-08-07T03:09:43.960Z,75.10
2022-08-07T03:12:22.529Z,74.90
2022-08-07T03:15:07.744Z,75.20
2022-08-07T03:17:53.999Z,75.10
2022-08-07T03:20:27.561Z,75.30
2022-08-07T03:22:58.714Z,75.70
2022-08-07T03:25:32.529Z,76.00
2022-08-07T03:28:37.639Z,76.10
2022-08-07T03:31:24.714Z,77.10
2022-08-07T03:34:02.611Z,77.20
2022-08-07T03:36:36.656Z,77.20
2022-08-07T03:39:09.354Z,77.30
2022-08-07T03:41:41.698Z,77.70
2022-08-07T03:44:13.468Z,77.60
2022-08-07T03:47:10.796Z,78.10
2022-08-07T03:49:37.370Z,78.40
2022-08-07T03:52:22.438Z,78.80
2022-08-07T03:54:57.445Z,78.60
2022-08-07T03:58:34.485Z,79.10
2022-08-07T04:00:30.315Z,78.90
2022-08-07T04:03:05.081Z,78.60
2022-08-07T04:05:39.608Z,78.40
2022-08-07T04:08:18.416Z,78.20
2022-08-07T04:10:54.304Z,78.00
2022-08-07T04:14:33.171Z,77.70
2022-08-07T04:16:32.457Z,77.70
2022-08-07T04:19:12.687Z,77.80
2022-08-07T04:22:04.901Z,78.00
2022-08-07T04:24:42.138Z,78.00
2022-08-07T04:27:36.029Z,78.10
2022-08-07T04:30:04.506Z,78.00
2022-08-07T04:32:58.073Z,78.10
2022-08-07T04:35:35.148Z,78.30
2022-08-07T04:38:11.370Z,78.40
2022-08-07T04:40:52.176Z,78.60
2022-08-07T04:44:13.259Z,78.80
2022-08-07T04:46:34.207Z,78.90
2022-08-07T04:49:24.204Z,78.80
2022-08-07T04:52:04.351Z,79.10
2022-08-07T04:54:39.103Z,79.40
2022-08-07T04:58:16.378Z,79.90
2022-08-07T05:00:18.713Z,80.00
2022-08-07T05:03:00.469Z,80.00
2022-08-07T05:05:53.965Z,81.10
2022-08-07T05:08:59.672Z,81.60
2022-08-07T05:11:57.951Z,81.80
2022-08-07T05:14:56.350Z,82.30
2022-08-07T05:17:51.829Z,82.10
2022-08-07T05:20:15.211Z,82.40
2022-08-07T05:22:48.954Z,82.90
2022-08-07T05:25:25.810Z,82.90
2022-08-07T05:28:21.148Z,82.80
2022-08-07T05:30:57.261Z,83.00
2022-08-07T05:33:31.232Z,83.50
2022-08-07T05:36:12.279Z,83.50
2022-08-07T05:38:59.789Z,83.60
2022-08-07T05:42:02.397Z,83.30
2022-08-07T05:44:29.559Z,83.50
2022-08-07T05:47:18.374Z,83.70
2022-08-07T05:49:51.967Z,84.10
2022-08-07T05:52:32.387Z,84.40
2022-08-07T05:55:10.352Z,84.50
2022-08-07T05:57:45.112Z,84.90
2022-08-07T06:00:17.835Z,85.00
2022-08-07T06:03:00.846Z,85.20
2022-08-07T06:05:31.722Z,85.60
2022-08-07T06:08:30.422Z,85.80
2022-08-07T06:11:00.221Z,85.70
2022-08-07T06:14:11.852Z,85.60
2022-08-07T06:16:29.235Z,85.80
2022-08-07T06:19:01.432Z,86.50
2022-08-07T06:22:16.544Z,86.50
2022-08-07T06:24:39.197Z,86.70
2022-08-07T06:27:10.575Z,86.30
2022-08-07T06:29:56.012Z,85.10
2022-08-07T06:32:29.453Z,84.80
2022-08-07T06:35:02.423Z,84.50
2022-08-07T06:37:43.626Z,84.80
2022-08-07T06:40:20.179Z,84.60
2022-08-07T06:42:54.039Z,83.60
2022-08-07T06:45:35.734Z,83.00
2022-08-07T06:48:07.675Z,82.80
2022-08-07T06:50:47.822Z,82.30
2022-08-07T06:55:29.249Z,82.00
2022-08-07T06:56:16.632Z,81.90
2022-08-07T07:00:14.656Z,81.70
2022-08-07T07:01:50.643Z,81.30
2022-08-07T07:04:27.989Z,81.50
2022-08-07T07:07:10.355Z,81.30
2022-08-07T07:09:49.843Z,80.90
2022-08-07T07:12:31.486Z,80.40
2022-08-07T07:15:08.621Z,80.10
2022-08-07T07:18:02.412Z,80.30
2022-08-07T07:20:38.312Z,80.10
2022-08-07T07:24:09.556Z,79.70
2022-08-07T07:26:33.836Z,79.50
2022-08-07T07:29:56.170Z,79.40
2022-08-07T07:31:49.472Z,79.60
2022-08-07T07:34:30.774Z,79.60
2022-08-07T07:37:14.570Z,79.10
2022-08-07T07:39:56.513Z,79.00
2022-08-07T07:42:32.885Z,79.20
2022-08-07T07:45:03.691Z,79.30
2022-08-07T07:47:51.918Z,79.30
2022-08-07T07:50:36.682Z,78.90
2022-08-07T07:53:20.249Z,79.40
2022-08-07T07:55:54.739Z,79.60
2022-08-07T07:58:30.655Z,79.60
2022-08-07T08:02:02.904Z,80.00
2022-08-07T08:04:09.698Z,80.20
2022-08-07T08:06:50.940Z,80.70
2022-08-07T08:09:29.409Z,80.20
2022-08-07T08:12:03.829Z,80.70
2022-08-07T08:14:36.090Z,81.00
2022-08-07T08:17:55.534Z,80.80
2022-08-07T08:20:18.824Z,80.80
2022-08-07T08:23:14.426Z,80.50
2022-08-07T08:26:07.006Z,80.70
2022-08-07T08:28:44.970Z,80.60
2022-08-07T08:31:29.868Z,80.50
2022-08-07T08:34:12.397Z,80.50
2022-08-07T08:36:59.024Z,80.20
2022-08-07T08:39:39.848Z,80.20
2022-08-07T08:42:26.956Z,80.30
2022-08-07T08:45:04.583Z,79.80
2022-08-07T08:47:47.564Z,79.90
2022-08-07T08:50:35.425Z,79.90
2022-08-07T08:53:29.389Z,79.50
2022-08-07T08:56:05.933Z,79.30
2022-08-07T08:58:44.422Z,79.60
2022-08-07T09:01:22.007Z,79.60
2022-08-07T09:04:08.241Z,79.10
2022-08-07T09:06:53.588Z,78.90
2022-08-07T09:09:37.141Z,78.80
2022-08-07T09:12:31.413Z,78.60
2022-08-07T09:16:23.252Z,78.40
2022-08-07T09:18:24.825Z,78.60
2022-08-07T09:21:13.965Z,78.20
2022-08-07T09:24:32.440Z,78.40
2022-08-07T09:27:04.537Z,78.50
2022-08-07T09:30:06.307Z,78.30
2022-08-07T09:33:05.320Z,78.00
2022-08-07T09:36:03.470Z,77.60
2022-08-07T09:38:53.453Z,78.00
2022-08-07T09:41:36.245Z,77.80
2022-08-07T09:45:03.516Z,77.70
2022-08-07T09:48:00.367Z,77.40
2022-08-07T09:50:40.992Z,77.60
2022-08-07T09:53:16.142Z,77.40
2022-08-07T09:56:04.970Z,77.50
2022-08-07T09:58:54.337Z,77.20
2022-08-07T10:01:50.502Z,77.00
2022-08-07T10:04:38.028Z,77.20
2022-08-07T10:07:25.734Z,77.10
2022-08-07T10:10:12.133Z,77.50
2022-08-07T10:13:55.120Z,78.20
2022-08-07T10:16:36.236Z,78.10
2022-08-07T10:19:38.524Z,78.30
2022-08-07T10:22:45.512Z,78.50
2022-08-07T10:25:42.567Z,78.70
2022-08-07T10:28:38.775Z,79.10
2022-08-07T10:31:38.624Z,92.10
2022-08-07T10:37:15.357Z,76.70
2022-08-07T10:40:05.619Z,78.00
2022-08-07T10:42:44.056Z,78.40
2022-08-07T10:45:44.180Z,78.50
2022-08-07T10:48:37.373Z,78.50
2022-08-07T10:51:57.193Z,78.30
2022-08-07T10:54:17.452Z,78.40
2022-08-07T10:56:58.471Z,78.60
2022-08-07T10:59:43.121Z,78.90
2022-08-07T11:02:33.209Z,79.00
2022-08-07T11:05:49.114Z,79.70
2022-08-07T11:08:33.736Z,87.50
2022-08-07T11:11:09.280Z,85.10
2022-08-07T11:14:43.774Z,78.50
2022-08-07T11:16:42.353Z,78.20
2022-08-07T11:19:21.570Z,78.20
2022-08-07T11:22:18.849Z,78.20
2022-08-07T11:25:07.538Z,78.80
2022-08-07T11:28:01.162Z,80.60
2022-08-07T11:30:42.366Z,77.30
2022-08-07T11:33:54.190Z,77.30
2022-08-07T11:36:25.127Z,99.90
2022-08-07T11:39:07.296Z,83.80
2022-08-07T11:42:01.760Z,83.40
2022-08-07T11:44:52.798Z,79.40
2022-08-07T11:47:56.043Z,75.70
2022-08-07T11:50:44.657Z,76.50
2022-08-07T11:53:43.249Z,75.60
2022-08-07T11:56:37.846Z,78.90
2022-08-07T12:00:11.498Z,79.00
2022-08-07T12:02:30.342Z,79.80
2022-08-07T12:05:15.053Z,81.10
2022-08-07T12:07:53.637Z,76.70
2022-08-07T12:10:36.506Z,76.50
2022-08-07T12:13:18.666Z,82.30
2022-08-07T12:16:13.163Z,82.80
2022-08-07T12:19:10.812Z,82.10
2022-08-07T12:22:38.144Z,89.00
2022-08-07T12:25:07.652Z,81.70
2022-08-07T12:28:08.703Z,84.60
2022-08-07T12:30:36.239Z,87.90
2022-08-07T12:33:23.123Z,83.00
2022-08-07T12:35:58.535Z,80.80
2022-08-07T12:38:42.598Z,81.80
2022-08-07T12:41:14.213Z,89.00
2022-08-07T12:44:02.069Z,88.40
2022-08-07T12:46:46.202Z,76.50
2022-08-07T12:49:25.869Z,77.00
2022-08-07T12:52:18.081Z,77.40
2022-08-07T12:54:59.044Z,78.00
2022-08-07T12:58:00.283Z,78.30
2022-08-07T13:00:32.700Z,79.00
2022-08-07T13:03:26.911Z,78.90
2022-08-07T13:06:27.302Z,78.80
2022-08-07T13:09:08.191Z,78.50
2022-08-07T13:12:10.041Z,79.30
2022-08-07T13:14:55.118Z,78.30
2022-08-07T13:17:42.649Z,78.80
2022-08-07T13:20:21.719Z,79.40
2022-08-07T13:23:09.771Z,80.30
2022-08-07T13:26:01.570Z,80.30
2022-08-07T13:28:36.958Z,80.40
2022-08-07T13:31:13.328Z,80.40
2022-08-07T13:34:34.616Z,79.50
2022-08-07T13:36:46.449Z,79.90
2022-08-07T13:40:34.067Z,79.40
2022-08-07T13:42:25.043Z,78.80
2022-08-07T13:46:06.082Z,78.20
2022-08-07T13:48:06.934Z,78.50
2022-08-07T13:50:44.902Z,78.40
2022-08-07T13:54:00.609Z,77.60
2022-08-07T13:56:36.068Z,77.20
2022-08-07T13:59:13.970Z,77.60
2022-08-07T14:02:03.664Z,79.20
2022-08-07T14:04:49.472Z,78.20
2022-08-07T14:07:22.791Z,77.60
2022-08-07T14:10:01.230Z,77.40
2022-08-07T14:12:55.028Z,76.40
2022-08-07T14:15:35.310Z,76.50
2022-08-07T14:18:23.410Z,77.00
2022-08-07T14:21:11.713Z,76.90
2022-08-07T14:24:00.723Z,76.30
2022-08-07T14:26:37.420Z,76.60
2022-08-07T14:30:02.926Z,77.80
2022-08-07T14:32:12.461Z,77.70
2022-08-07T14:34:46.732Z,78.90
2022-08-07T14:37:23.869Z,80.60
2022-08-07T14:40:15.934Z,81.20
2022-08-07T14:43:58.833Z,81.60
2022-08-07T14:45:55.766Z,82.00
2022-08-07T14:48:29.272Z,82.40
2022-08-07T14:51:05.765Z,82.30
2022-08-07T14:56:32.223Z,83.00
2022-08-07T14:59:13.889Z,83.00
2022-08-07T15:01:59.457Z,82.30
2022-08-07T15:04:29.212Z,82.10
2022-08-07T15:12:44.381Z,81.40
2022-08-07T15:15:33.133Z,81.00
2022-08-07T15:18:28.448Z,80.90
2022-08-07T15:21:43.774Z,80.90
2022-08-07T15:25:15.071Z,80.60
2022-08-07T15:26:57.288Z,80.30
2022-08-07T15:30:04.435Z,80.20
2022-08-07T15:32:39.637Z,79.90
2022-08-07T15:35:19.411Z,79.70
2022-08-07T15:38:18.338Z,79.60
2022-08-07T15:41:23.806Z,79.30
2022-08-07T15:44:02.519Z,79.00
2022-08-07T15:46:39.366Z,78.90
2022-08-07T15:52:21.958Z,78.60
2022-08-07T15:55:03.824Z,78.50
2022-08-07T15:57:40.143Z,78.20
2022-08-07T16:00:31.238Z,78.20
2022-08-07T16:03:21.447Z,78.00
2022-08-07T16:05:53.877Z,78.00
2022-08-07T16:08:37.789Z,77.70
2022-08-07T16:11:27.013Z,77.60
2022-08-07T16:14:06.791Z,78.20
2022-08-07T16:17:15.188Z,77.40
2022-08-07T16:20:34.232Z,76.60
2022-08-07T16:23:53.080Z,75.60
2022-08-07T16:26:14.549Z,74.70
2022-08-07T16:30:07.484Z,73.70
2022-08-07T16:32:00.563Z,73.20
2022-08-07T16:34:45.298Z,72.20
2022-08-07T16:38:03.787Z,71.80
2022-08-07T16:41:41.683Z,71.00
2022-08-07T16:45:24.554Z,70.70
2022-08-07T16:48:10.353Z,70.20
2022-08-07T16:51:21.681Z,69.90
2022-08-07T16:54:22.614Z,69.70
2022-08-07T16:57:28.787Z,69.40
2022-08-07T17:00:29.941Z,69.30
2022-08-07T17:03:58.580Z,69.20
2022-08-07T17:06:44.787Z,69.50
2022-08-07T17:10:06.012Z,68.80
2022-08-07T17:12:34.187Z,68.80
2022-08-07T17:15:09.044Z,68.60
2022-08-07T17:17:50.251Z,69.50
2022-08-07T17:20:32.873Z,69.30
2022-08-07T17:23:08.809Z,68.80
2022-08-07T17:25:55.062Z,68.90
2022-08-07T17:28:34.703Z,69.30
2022-08-07T17:31:15.781Z,69.50
2022-08-07T17:34:18.295Z,69.10
2022-08-07T17:37:08.879Z,69.10
2022-08-07T17:39:58.206Z,69.20
2022-08-07T17:42:58.641Z,69.20
2022-08-07T17:45:35.763Z,69.10
2022-08-07T17:48:12.795Z,69.20
2022-08-07T17:51:01.781Z,69.10
2022-08-07T17:53:59.909Z,69.00
2022-08-07T17:56:33.916Z,68.00
2022-08-07T17:59:17.085Z,67.10
2022-08-07T18:01:58.908Z,66.70
2022-08-07T18:04:34.514Z,66.50
2022-08-07T18:07:24.473Z,65.80
2022-08-07T18:10:05.970Z,65.10
2022-08-07T18:12:49.662Z,63.80
2022-08-07T18:15:33.100Z,63.60
2022-08-07T18:18:46.011Z,65.20
2022-08-07T18:21:38.380Z,66.10
2022-08-07T18:24:07.249Z,66.90
2022-08-07T18:27:09.641Z,67.40
2022-08-07T18:30:07.039Z,67.60
2022-08-07T18:33:27.502Z,68.00
2022-08-07T18:36:12.901Z,68.30
2022-08-07T18:39:01.236Z,68.50
2022-08-07T18:41:56.344Z,68.60
2022-08-07T18:45:42.894Z,68.80
2022-08-07T18:47:49.328Z,69.80
2022-08-07T18:50:59.618Z,69.20
2022-08-07T18:53:48.831Z,69.50
2022-08-07T18:56:39.441Z,69.60
2022-08-07T18:59:47.341Z,70.00
2022-08-07T19:02:36.883Z,69.80
2022-08-07T19:05:21.722Z,70.60
2022-08-07T19:08:05.436Z,70.40
2022-08-07T19:10:51.467Z,65.60
2022-08-07T19:13:27.531Z,62.80
2022-08-07T19:17:00.513Z,61.20
2022-08-07T19:19:01.517Z,60.30
2022-08-07T19:21:53.376Z,58.90
2022-08-07T19:24:32.123Z,58.20
2022-08-07T19:28:29.892Z,58.20
2022-08-07T19:31:00.691Z,57.90
2022-08-07T19:32:59.429Z,57.90
2022-08-07T19:35:33.107Z,57.20
2022-08-07T19:38:16.024Z,57.80
2022-08-07T19:40:49.959Z,57.20
2022-08-07T19:43:43.428Z,56.90
2022-08-07T19:46:19.020Z,56.80
2022-08-07T19:48:53.939Z,57.10
2022-08-07T19:51:51.221Z,57.00
2022-08-07T19:54:32.757Z,56.10
2022-08-07T19:58:01.974Z,56.00
2022-08-07T20:00:08.933Z,56.60
2022-08-07T20:02:51.899Z,57.00
2022-08-07T20:05:28.674Z,57.00
2022-08-07T20:08:01.605Z,57.40
2022-08-07T20:10:54.303Z,57.60
2022-08-07T20:13:32.346Z,57.30
2022-08-07T20:16:04.257Z,57.20
2022-08-07T20:18:35.508Z,57.20
2022-08-07T20:21:21.046Z,57.60
2022-08-07T20:23:54.897Z,57.90
2022-08-07T20:26:32.378Z,57.80
2022-08-07T20:29:10.096Z,58.20
2022-08-07T20:31:46.441Z,58.80
2022-08-07T20:34:34.358Z,58.60
2022-08-07T20:37:11.942Z,58.80
2022-08-07T20:40:03.072Z,59.00
2022-08-07T20:42:35.638Z,59.10
2022-08-07T20:45:33.371Z,59.40
2022-08-07T20:47:58.778Z,59.50
2022-08-07T20:50:30.826Z,59.70
2022-08-07T20:53:02.487Z,59.70
2022-08-07T20:55:35.961Z,59.80
2022-08-07T20:58:19.261Z,60.10
2022-08-07T21:00:56.273Z,60.30
2022-08-07T21:03:28.065Z,60.30
2022-08-07T21:06:21.816Z,60.50
2022-08-07T21:09:01.853Z,60.70
2022-08-07T21:11:46.401Z,61.00
2022-08-07T21:14:33.341Z,61.30
2022-08-07T21:18:02.603Z,61.50
2022-08-07T21:20:05.147Z,61.60
2022-08-07T21:22:45.113Z,61.80
2022-08-07T21:25:30.953Z,62.20
2022-08-07T21:28:16.730Z,62.50
2022-08-07T21:30:58.067Z,62.80
2022-08-07T21:33:41.467Z,63.00
2022-08-07T21:36:31.635Z,63.10
2022-08-07T21:39:47.587Z,63.40
2022-08-07T21:42:37.571Z,63.70
2022-08-07T21:46:05.101Z,63.90
2022-08-07T21:48:27.944Z,64.20
2022-08-07T21:51:06.835Z,64.30
2022-08-07T21:53:46.339Z,64.50
2022-08-07T21:56:36.025Z,64.60
2022-08-07T21:59:11.011Z,64.90
2022-08-07T22:02:10.282Z,65.20
2022-08-07T22:04:53.421Z,65.20
2022-08-07T22:07:31.476Z,65.40
2022-08-07T22:10:04.349Z,65.50
2022-08-07T22:12:39.866Z,65.50
2022-08-07T22:16:42.751Z,65.50
2022-08-07T22:18:08.753Z,65.80
2022-08-07T22:20:45.680Z,65.90
2022-08-07T22:23:22.059Z,65.90
2022-08-07T22:26:02.791Z,66.00
2022-08-07T22:28:48.217Z,65.90
2022-08-07T22:31:59.392Z,66.10
2022-08-07T22:34:31.719Z,66.30
2022-08-07T22:37:14.873Z,66.20
2022-08-07T22:39:53.532Z,66.20
2022-08-07T22:42:30.379Z,66.20
2022-08-07T22:45:03.791Z,66.20
2022-08-07T22:48:31.792Z,66.10
2022-08-07T22:51:36.362Z,66.30
2022-08-07T22:54:23.572Z,66.60
2022-08-07T22:57:02.214Z,66.90
2022-08-07T22:59:52.524Z,66.90
2022-08-07T23:02:52.865Z,67.10
2022-08-07T23:06:09.290Z,67.20
2022-08-07T23:10:00.599Z,67.30
2022-08-07T23:12:32.670Z,67.50
2022-08-07T23:16:04.516Z,67.60
2022-08-07T23:18:15.011Z,67.60
2022-08-07T23:21:06.429Z,67.60
2022-08-07T23:24:11.938Z,67.50
2022-08-07T23:27:01.218Z,67.60
2022-08-07T23:30:37.609Z,67.50
2022-08-07T23:34:35.094Z,67.30
2022-08-07T23:35:54.458Z,67.30
2022-08-07T23:38:42.724Z,68.10
2022-08-07T23:41:33.052Z,67.30
2022-08-07T23:44:38.380Z,67.50
2022-08-07T23:47:21.138Z,67.50
2022-08-07T23:50:16.442Z,67.50
2022-08-07T23:52:57.891Z,67.90
2022-08-07T23:55:52.962Z,67.90
2022-08-07T23:58:31.022Z,68.10
